createdAt,value
2022-10-11T00:00:09.309Z,100.00
2022-10-11T00:01:11.392Z,100.00
2022-10-11T00:02:14.459Z,100.00
2022-10-11T00:03:29.801Z,100.00
2022-10-11T00:04:44.852Z,100.00
2022-10-11T00:05:59.753Z,100.00
2022-10-11T00:07:14.844Z,100.00
2022-10-11T00:08:30.176Z,100.00
2022-10-11T00:09:47.399Z,100.00
2022-10-11T00:11:06.141Z,100.00
2022-10-11T00:12:21.292Z,100.00
2022-10-11T00:13:36.751Z,100.00
2022-10-11T00:14:52.894Z,100.00
2022-10-11T00:16:12.882Z,100.00
2022-10-11T00:17:27.752Z,100.00
2022-10-11T00:18:43.224Z,100.00
2022-10-11T00:19:59.528Z,100.00
2022-10-11T00:21:15.977Z,100.00
2022-10-11T00:22:30.970Z,100.00
2022-10-11T00:23:46.042Z,100.00
2022-10-11T00:25:02.673Z,100.00
2022-10-11T00:26:17.685Z,100.00
2022-10-11T00:27:32.693Z,100.00
2022-10-11T00:28:47.975Z,100.00
2022-10-11T00:30:05.359Z,100.00
2022-10-11T00:31:21.013Z,100.00
2022-10-11T00:32:37.481Z,100.00
2022-10-11T00:33:54.116Z,100.00
2022-10-11T00:35:09.927Z,100.00
2022-10-11T00:36:25.716Z,100.00
2022-10-11T00:37:40.924Z,100.00
2022-10-11T00:38:55.754Z,100.00
2022-10-11T00:40:16.627Z,100.00
2022-10-11T00:41:32.255Z,100.00
2022-10-11T00:42:47.883Z,100.00
2022-10-11T00:44:15.976Z,100.00
2022-10-11T00:46:03.731Z,100.00
2022-10-11T00:47:22.664Z,100.00
2022-10-11T00:48:42.460Z,100.00
2022-10-11T00:50:02.222Z,100.00
2022-10-11T00:51:22.119Z,100.00
2022-10-11T00:52:42.105Z,100.00
2022-10-11T00:53:57.849Z,100.00
2022-10-11T00:55:15.443Z,100.00
2022-10-11T00:56:34.226Z,100.00
2022-10-11T00:57:52.921Z,100.00
2022-10-11T00:59:13.514Z,100.00
2022-10-11T01:00:28.949Z,100.00
2022-10-11T01:01:44.083Z,100.00
2022-10-11T01:03:01.811Z,100.00
2022-10-11T01:04:17.032Z,100.00
2022-10-11T01:05:33.073Z,100.00
2022-10-11T01:06:49.832Z,100.00
2022-10-11T01:08:05.890Z,100.00
2022-10-11T01:09:23.348Z,100.00
2022-10-11T01:10:38.572Z,100.00
2022-10-11T01:11:56.558Z,100.00
2022-10-11T01:13:22.275Z,100.00
2022-10-11T01:15:05.348Z,100.00
2022-10-11T01:16:29.320Z,100.00
2022-10-11T01:17:53.000Z,100.00
2022-10-11T01:19:27.365Z,100.00
2022-10-11T01:20:54.783Z,100.00
2022-10-11T01:22:25.101Z,100.00
2022-10-11T01:24:19.588Z,100.00
2022-10-11T01:25:45.425Z,100.00
2022-10-11T01:27:31.929Z,100.00
2022-10-11T01:28:52.412Z,100.00
2022-10-11T01:30:27.934Z,100.00
2022-10-11T01:31:49.118Z,100.00
2022-10-11T01:33:15.500Z,100.00
2022-10-11T01:34:38.222Z,100.00
2022-10-11T01:36:03.920Z,100.00
2022-10-11T01:37:28.332Z,100.00
2022-10-11T01:38:48.890Z,100.00
2022-10-11T01:40:11.123Z,100.00
2022-10-11T01:41:32.399Z,100.00
2022-10-11T01:42:47.797Z,100.00
2022-10-11T01:44:04.810Z,100.00
2022-10-11T01:45:21.718Z,100.00
2022-10-11T01:46:38.067Z,100.00
2022-10-11T01:48:05.202Z,100.00
2022-10-11T01:49:21.995Z,100.00
2022-10-11T01:50:47.252Z,100.00
2022-10-11T01:52:07.425Z,100.00
2022-10-11T01:53:47.510Z,100.00
2022-10-11T01:55:18.224Z,100.00
2022-10-11T01:57:05.021Z,100.00
2022-10-11T01:58:34.845Z,100.00
2022-10-11T01:59:59.666Z,100.00
2022-10-11T02:01:28.823Z,100.00
2022-10-11T02:02:54.199Z,100.00
2022-10-11T02:04:16.424Z,100.00
2022-10-11T02:05:40.215Z,100.00
2022-10-11T02:07:01.430Z,100.00
2022-10-11T02:08:24.184Z,100.00
2022-10-11T02:09:46.503Z,100.00
2022-10-11T02:11:07.802Z,100.00
2022-10-11T02:12:29.863Z,100.00
2022-10-11T02:13:52.052Z,100.00
2022-10-11T02:15:10.282Z,100.00
2022-10-11T02:16:31.289Z,100.00
2022-10-11T02:17:51.054Z,100.00
2022-10-11T02:19:09.251Z,100.00
2022-10-11T02:20:27.282Z,100.00
2022-10-11T02:21:45.676Z,100.00
2022-10-11T02:23:04.702Z,100.00
2022-10-11T02:24:27.273Z,100.00
2022-10-11T02:25:44.897Z,100.00
2022-10-11T02:27:02.915Z,100.00
2022-10-11T02:28:23.767Z,100.00
2022-10-11T02:29:42.943Z,100.00
2022-10-11T02:31:01.230Z,100.00
2022-10-11T02:32:18.466Z,100.00
2022-10-11T02:33:39.996Z,100.00
2022-10-11T02:34:59.239Z,100.00
2022-10-11T02:36:31.302Z,100.00
2022-10-11T02:37:54.150Z,100.00
2022-10-11T02:39:15.136Z,100.00
2022-10-11T02:40:34.231Z,100.00
2022-10-11T02:41:54.225Z,100.00
2022-10-11T02:43:17.550Z,100.00
2022-10-11T02:44:41.557Z,100.00
2022-10-11T02:46:00.565Z,100.00
2022-10-11T02:47:16.237Z,100.00
2022-10-11T02:48:33.852Z,100.00
2022-10-11T02:49:49.123Z,100.00
2022-10-11T02:51:05.545Z,100.00
2022-10-11T02:52:21.189Z,100.00
2022-10-11T02:53:37.362Z,100.00
2022-10-11T02:54:52.371Z,100.00
2022-10-11T02:56:08.170Z,100.00
2022-10-11T02:57:24.002Z,100.00
2022-10-11T02:58:39.036Z,100.00
2022-10-11T02:59:54.071Z,100.00
2022-10-11T03:01:10.733Z,100.00
2022-10-11T03:02:25.689Z,100.00
2022-10-11T03:03:41.001Z,100.00
2022-10-11T03:04:57.681Z,100.00
2022-10-11T03:06:14.061Z,100.00
2022-10-11T03:07:28.896Z,100.00
2022-10-11T03:08:43.956Z,100.00
2022-10-11T03:09:58.986Z,100.00
2022-10-11T03:11:13.953Z,100.00
2022-10-11T03:12:28.966Z,100.00
2022-10-11T03:13:47.221Z,100.00
2022-10-11T03:15:02.277Z,100.00
2022-10-11T03:16:18.926Z,100.00
2022-10-11T03:17:37.491Z,100.00
2022-10-11T03:18:53.642Z,100.00
2022-10-11T03:20:09.754Z,100.00
2022-10-11T03:21:37.098Z,100.00
2022-10-11T03:22:52.090Z,100.00
2022-10-11T03:24:07.929Z,100.00
2022-10-11T03:25:23.704Z,100.00
2022-10-11T03:26:38.738Z,100.00
2022-10-11T03:27:53.739Z,100.00
2022-10-11T03:29:08.786Z,100.00
2022-10-11T03:30:23.785Z,100.00
2022-10-11T03:31:38.763Z,100.00
2022-10-11T03:32:53.850Z,100.00
2022-10-11T03:34:08.835Z,100.00
2022-10-11T03:35:23.812Z,100.00
2022-10-11T03:36:38.865Z,100.00
2022-10-11T03:37:53.834Z,100.00
2022-10-11T03:39:08.918Z,100.00
2022-10-11T03:40:23.881Z,100.00
2022-10-11T03:41:52.397Z,100.00
2022-10-11T03:43:07.560Z,100.00
2022-10-11T03:44:23.859Z,100.00
2022-10-11T03:45:39.356Z,100.00
2022-10-11T03:46:55.588Z,100.00
2022-10-11T03:48:11.260Z,100.00
2022-10-11T03:49:27.277Z,100.00
2022-10-11T03:50:42.188Z,100.00
2022-10-11T03:51:57.183Z,100.00
2022-10-11T03:53:12.246Z,100.00
2022-10-11T03:54:27.529Z,100.00
2022-10-11T03:55:43.821Z,100.00
2022-10-11T03:56:59.253Z,100.00
2022-10-11T03:58:15.455Z,100.00
2022-10-11T03:59:30.544Z,100.00
2022-10-11T04:00:45.535Z,100.00
2022-10-11T04:02:00.528Z,100.00
2022-10-11T04:03:17.095Z,100.00
2022-10-11T04:04:32.167Z,100.00
2022-10-11T04:05:47.280Z,100.00
2022-10-11T04:07:18.224Z,100.00
2022-10-11T04:08:33.197Z,100.00
2022-10-11T04:09:49.941Z,100.00
2022-10-11T04:11:05.071Z,100.00
2022-10-11T04:12:21.595Z,100.00
2022-10-11T04:13:38.016Z,100.00
2022-10-11T04:14:55.062Z,100.00
2022-10-11T04:16:11.253Z,100.00
2022-10-11T04:17:26.292Z,100.00
2022-10-11T04:18:41.295Z,100.00
2022-10-11T04:19:56.304Z,100.00
2022-10-11T04:21:11.308Z,100.00
2022-10-11T04:22:26.318Z,100.00
2022-10-11T04:23:41.373Z,100.00
2022-10-11T04:24:56.390Z,100.00
2022-10-11T04:26:11.504Z,100.00
2022-10-11T04:27:28.277Z,100.00
2022-10-11T04:28:44.772Z,100.00
2022-10-11T04:30:01.280Z,100.00
2022-10-11T04:31:16.391Z,100.00
2022-10-11T04:32:31.403Z,100.00
2022-10-11T04:33:46.259Z,100.00
2022-10-11T04:35:01.296Z,100.00
2022-10-11T04:36:16.303Z,100.00
2022-10-11T04:37:31.344Z,100.00
2022-10-11T04:38:46.333Z,100.00
2022-10-11T04:40:01.419Z,100.00
2022-10-11T04:41:17.182Z,100.00
2022-10-11T04:42:32.958Z,100.00
2022-10-11T04:43:48.325Z,100.00
2022-10-11T04:45:05.464Z,100.00
2022-10-11T04:46:21.565Z,100.00
2022-10-11T04:47:38.089Z,100.00
2022-10-11T04:48:54.878Z,100.00
2022-10-11T04:50:11.205Z,100.00
2022-10-11T04:51:26.205Z,100.00
2022-10-11T04:52:41.204Z,100.00
2022-10-11T04:53:56.113Z,100.00
2022-10-11T04:55:11.953Z,100.00
2022-10-11T04:56:27.776Z,100.00
2022-10-11T04:57:42.798Z,100.00
2022-10-11T04:58:57.805Z,100.00
2022-10-11T05:00:14.098Z,100.00
2022-10-11T05:01:29.397Z,100.00
2022-10-11T05:02:44.452Z,100.00
2022-10-11T05:03:59.515Z,100.00
2022-10-11T05:05:17.566Z,100.00
2022-10-11T05:06:33.725Z,100.00
2022-10-11T05:07:49.524Z,100.00
2022-10-11T05:09:06.065Z,100.00
2022-10-11T05:10:21.074Z,100.00
2022-10-11T05:11:37.758Z,100.00
2022-10-11T05:12:54.157Z,100.00
2022-10-11T05:14:09.383Z,100.00
2022-10-11T05:15:25.848Z,100.00
2022-10-11T05:16:42.465Z,100.00
2022-10-11T05:17:57.468Z,100.00
2022-10-11T05:19:12.494Z,100.00
2022-10-11T05:20:27.915Z,100.00
2022-10-11T05:21:44.101Z,100.00
2022-10-11T05:22:59.128Z,100.00
2022-10-11T05:24:14.144Z,100.00
2022-10-11T05:25:29.152Z,100.00
2022-10-11T05:26:45.935Z,100.00
2022-10-11T05:28:02.404Z,100.00
2022-10-11T05:29:17.547Z,100.00
2022-10-11T05:30:34.104Z,100.00
2022-10-11T05:31:50.624Z,100.00
2022-10-11T05:33:05.704Z,100.00
2022-10-11T05:34:20.698Z,100.00
2022-10-11T05:35:35.645Z,100.00
2022-10-11T05:36:50.709Z,100.00
2022-10-11T05:38:05.664Z,100.00
2022-10-11T05:39:20.767Z,100.00
2022-10-11T05:40:36.095Z,100.00
2022-10-11T05:41:52.944Z,100.00
2022-10-11T05:43:09.376Z,100.00
2022-10-11T05:44:25.897Z,100.00
2022-10-11T05:45:43.631Z,100.00
2022-10-11T05:46:59.054Z,100.00
2022-10-11T05:48:28.548Z,100.00
2022-10-11T05:49:43.806Z,100.00
2022-10-11T05:51:03.005Z,100.00
2022-10-11T05:52:21.502Z,100.00
2022-10-11T05:53:37.197Z,100.00
2022-10-11T05:54:53.539Z,100.00
2022-10-11T05:56:20.359Z,100.00
2022-10-11T05:57:36.322Z,100.00
2022-10-11T05:58:52.063Z,100.00
2022-10-11T06:00:09.186Z,100.00
2022-10-11T06:01:31.052Z,100.00
2022-10-11T06:02:47.577Z,100.00
2022-10-11T06:04:02.641Z,100.00
2022-10-11T06:05:19.501Z,100.00
2022-10-11T06:06:35.785Z,100.00
2022-10-11T06:07:50.806Z,100.00
2022-10-11T06:09:06.120Z,100.00
2022-10-11T06:10:22.566Z,100.00
2022-10-11T06:11:42.618Z,100.00
2022-10-11T06:13:12.715Z,100.00
2022-10-11T06:14:47.978Z,100.00
2022-10-11T06:16:17.831Z,100.00
2022-10-11T06:17:54.049Z,100.00
2022-10-11T06:19:29.084Z,100.00
2022-10-11T06:21:02.599Z,100.00
2022-10-11T06:22:34.321Z,100.00
2022-10-11T06:24:04.140Z,100.00
2022-10-11T06:25:37.161Z,100.00
2022-10-11T06:27:12.266Z,100.00
2022-10-11T06:28:50.815Z,100.00
2022-10-11T06:30:29.875Z,100.00
2022-10-11T06:32:18.224Z,100.00
2022-10-11T06:33:50.734Z,100.00
2022-10-11T06:35:21.179Z,100.00
2022-10-11T06:36:56.540Z,100.00
2022-10-11T06:38:32.297Z,100.00
2022-10-11T06:40:23.699Z,100.00
2022-10-11T06:42:01.569Z,100.00
2022-10-11T06:43:35.183Z,100.00
2022-10-11T06:45:08.158Z,100.00
2022-10-11T06:46:42.753Z,100.00
2022-10-11T06:48:24.616Z,100.00
2022-10-11T06:50:00.749Z,100.00
2022-10-11T06:51:48.705Z,100.00
2022-10-11T06:53:21.198Z,100.00
2022-10-11T06:55:00.708Z,100.00
2022-10-11T06:56:34.272Z,100.00
2022-10-11T06:58:15.379Z,100.00
2022-10-11T06:59:45.624Z,100.00
2022-10-11T07:01:19.072Z,100.00
2022-10-11T07:03:01.344Z,100.00
2022-10-11T07:04:34.878Z,100.00
2022-10-11T07:06:21.475Z,100.00
2022-10-11T07:07:57.047Z,100.00
2022-10-11T07:09:27.170Z,100.00
2022-10-11T07:11:09.993Z,100.00
2022-10-11T07:12:45.924Z,100.00
2022-10-11T07:14:18.799Z,100.00
2022-10-11T07:15:52.202Z,100.00
2022-10-11T07:17:24.777Z,100.00
2022-10-11T07:19:00.737Z,100.00
2022-10-11T07:20:35.068Z,100.00
2022-10-11T07:22:07.461Z,100.00
2022-10-11T07:23:39.658Z,100.00
2022-10-11T07:25:24.193Z,100.00
2022-10-11T07:26:54.827Z,100.00
2022-10-11T07:28:24.337Z,100.00
2022-10-11T07:30:06.121Z,100.00
2022-10-11T07:31:48.441Z,100.00
2022-10-11T07:33:20.608Z,100.00
2022-10-11T07:34:53.289Z,100.00
2022-10-11T07:36:31.907Z,100.00
2022-10-11T07:38:17.063Z,100.00
2022-10-11T07:39:45.772Z,100.00
2022-10-11T07:41:15.854Z,100.00
2022-10-11T07:42:48.361Z,100.00
2022-10-11T07:44:56.225Z,100.00
2022-10-11T07:46:37.616Z,100.00
2022-10-11T07:48:11.354Z,100.00
2022-10-11T07:49:52.506Z,100.00
2022-10-11T07:51:27.116Z,100.00
2022-10-11T07:53:00.455Z,100.00
2022-10-11T07:54:41.728Z,100.00
2022-10-11T07:56:16.432Z,100.00
2022-10-11T07:57:45.982Z,100.00
2022-10-11T07:59:21.304Z,100.00
2022-10-11T08:00:55.684Z,100.00
2022-10-11T08:02:43.472Z,100.00
2022-10-11T08:04:15.434Z,100.00
2022-10-11T08:05:52.339Z,100.00
2022-10-11T08:07:31.405Z,100.00
2022-10-11T08:09:07.434Z,100.00
2022-10-11T08:10:43.215Z,100.00
2022-10-11T08:12:16.896Z,99.42
2022-10-11T08:13:46.109Z,98.68
2022-10-11T08:15:15.153Z,98.74
2022-10-11T08:16:44.625Z,98.24
2022-10-11T08:18:17.594Z,97.66
2022-10-11T08:20:01.743Z,96.88
2022-10-11T08:21:32.838Z,95.93
2022-10-11T08:23:21.506Z,95.64
2022-10-11T08:25:00.567Z,95.39
2022-10-11T08:26:35.248Z,94.88
2022-10-11T08:28:09.802Z,94.56
2022-10-11T08:29:42.073Z,94.69
2022-10-11T08:31:23.735Z,94.34
2022-10-11T08:32:57.558Z,94.16
2022-10-11T08:34:26.541Z,94.09
2022-10-11T08:36:05.923Z,93.53
2022-10-11T08:37:38.517Z,93.29
2022-10-11T08:39:16.395Z,92.70
2022-10-11T08:40:52.722Z,92.52
2022-10-11T08:42:33.587Z,92.22
2022-10-11T08:44:21.995Z,91.62
2022-10-11T08:46:03.168Z,91.64
2022-10-11T08:47:12.206Z,91.27
2022-10-11T08:48:18.174Z,91.04
2022-10-11T08:49:25.692Z,91.06
2022-10-11T08:50:27.958Z,90.90
2022-10-11T08:51:34.874Z,90.39
2022-10-11T08:52:47.865Z,90.57
2022-10-11T08:53:57.626Z,90.38
2022-10-11T08:55:05.451Z,89.89
2022-10-11T08:56:09.877Z,89.90
2022-10-11T08:57:17.277Z,90.03
2022-10-11T08:58:24.336Z,89.98
2022-10-11T08:59:34.067Z,89.56
2022-10-11T09:00:38.284Z,89.79
2022-10-11T09:01:47.512Z,89.23
2022-10-11T09:03:08.689Z,88.66
2022-10-11T09:04:15.520Z,88.79
2022-10-11T09:05:20.644Z,88.62
2022-10-11T09:06:37.467Z,88.45
2022-10-11T09:07:48.929Z,87.80
2022-10-11T09:09:04.611Z,87.82
2022-10-11T09:10:36.402Z,87.32
2022-10-11T09:11:53.787Z,87.42
2022-10-11T09:13:08.868Z,87.61
2022-10-11T09:14:50.057Z,87.44
2022-10-11T09:16:00.306Z,86.80
2022-10-11T09:17:08.772Z,86.70
2022-10-11T09:18:29.048Z,86.56
2022-10-11T09:20:11.959Z,86.72
2022-10-11T09:21:23.459Z,86.35
2022-10-11T09:22:33.509Z,86.17
2022-10-11T09:23:52.438Z,86.50
2022-10-11T09:25:13.069Z,86.30
2022-10-11T09:26:23.129Z,85.78
2022-10-11T09:27:50.373Z,85.80
2022-10-11T09:29:03.116Z,85.41
2022-10-11T09:30:11.765Z,85.14
2022-10-11T09:31:14.941Z,84.97
2022-10-11T09:32:21.057Z,84.86
2022-10-11T09:33:34.245Z,84.89
2022-10-11T09:34:38.197Z,84.75
2022-10-11T09:35:46.408Z,84.50
2022-10-11T09:36:56.283Z,84.67
2022-10-11T09:38:05.391Z,84.52
2022-10-11T09:39:19.651Z,84.29
2022-10-11T09:40:51.521Z,84.18
2022-10-11T09:41:59.037Z,84.32
2022-10-11T09:43:02.161Z,83.80
2022-10-11T09:44:08.573Z,83.54
2022-10-11T09:45:16.747Z,83.24
2022-10-11T09:46:23.848Z,82.44
2022-10-11T09:47:30.356Z,82.93
2022-10-11T09:48:40.986Z,82.45
2022-10-11T09:49:47.666Z,82.34
2022-10-11T09:50:51.731Z,82.25
2022-10-11T09:51:57.904Z,82.09
2022-10-11T09:53:04.873Z,81.75
2022-10-11T09:54:10.480Z,81.27
2022-10-11T09:55:30.504Z,81.25
2022-10-11T09:56:36.143Z,80.70
2022-10-11T09:57:40.942Z,80.12
2022-10-11T09:58:43.115Z,79.18
2022-10-11T09:59:59.546Z,79.13
2022-10-11T10:01:08.009Z,78.95
2022-10-11T10:02:23.269Z,78.55
2022-10-11T10:03:31.678Z,78.70
2022-10-11T10:04:33.898Z,77.97
2022-10-11T10:05:38.541Z,78.00
2022-10-11T10:06:41.365Z,78.01
2022-10-11T10:08:04.530Z,77.84
2022-10-11T10:09:30.372Z,77.74
2022-10-11T10:10:42.485Z,78.04
2022-10-11T10:11:44.590Z,77.94
2022-10-11T10:12:54.843Z,77.69
2022-10-11T10:13:58.084Z,77.57
2022-10-11T10:15:07.498Z,77.77
2022-10-11T10:16:22.206Z,77.57
2022-10-11T10:17:24.313Z,77.31
2022-10-11T10:18:35.303Z,77.51
2022-10-11T10:19:44.722Z,77.79
2022-10-11T10:20:53.348Z,77.80
2022-10-11T10:21:57.708Z,77.79
2022-10-11T10:23:02.922Z,77.18
2022-10-11T10:24:18.241Z,77.51
2022-10-11T10:25:24.552Z,77.62
2022-10-11T10:26:28.541Z,77.60
2022-10-11T10:27:31.799Z,77.17
2022-10-11T10:28:35.004Z,77.03
2022-10-11T10:29:37.450Z,76.17
2022-10-11T10:30:54.376Z,75.77
2022-10-11T10:32:14.648Z,75.70
2022-10-11T10:33:20.909Z,75.27
2022-10-11T10:34:29.541Z,75.54
2022-10-11T10:35:36.460Z,75.38
2022-10-11T10:36:43.339Z,74.99
2022-10-11T10:37:54.149Z,75.11
2022-10-11T10:39:02.698Z,75.62
2022-10-11T10:40:09.310Z,75.58
2022-10-11T10:41:15.718Z,75.55
2022-10-11T10:42:20.588Z,75.46
2022-10-11T10:43:27.679Z,74.87
2022-10-11T10:44:29.872Z,74.97
2022-10-11T10:45:45.396Z,74.85
2022-10-11T10:46:58.580Z,75.32
2022-10-11T10:48:19.428Z,75.18
2022-10-11T10:50:55.907Z,75.09
2022-10-11T10:52:20.560Z,75.07
2022-10-11T10:53:30.075Z,75.17
2022-10-11T10:54:42.340Z,75.38
2022-10-11T10:55:46.858Z,75.22
2022-10-11T10:56:53.851Z,75.51
2022-10-11T10:58:18.638Z,75.10
2022-10-11T10:59:41.981Z,75.47
2022-10-11T11:00:47.117Z,75.70
2022-10-11T11:01:57.609Z,75.87
2022-10-11T11:03:04.140Z,75.99
2022-10-11T11:04:14.684Z,75.84
2022-10-11T11:05:23.889Z,75.59
2022-10-11T11:06:36.620Z,75.41
2022-10-11T11:07:44.373Z,75.39
2022-10-11T11:08:58.705Z,74.90
2022-10-11T11:10:05.644Z,75.28
2022-10-11T11:11:19.462Z,75.24
2022-10-11T11:12:34.460Z,75.02
2022-10-11T11:13:42.620Z,75.13
2022-10-11T11:14:55.988Z,74.80
2022-10-11T11:16:18.783Z,73.98
2022-10-11T11:17:30.019Z,74.15
2022-10-11T11:18:42.600Z,73.62
2022-10-11T11:19:58.773Z,73.66
2022-10-11T11:21:13.023Z,72.85
2022-10-11T11:22:32.844Z,73.22
2022-10-11T11:23:43.656Z,73.33
2022-10-11T11:24:53.091Z,72.89
2022-10-11T11:26:07.545Z,73.12
2022-10-11T11:27:21.247Z,72.87
2022-10-11T11:28:37.791Z,73.27
2022-10-11T11:29:55.225Z,72.58
2022-10-11T11:31:05.317Z,72.92
2022-10-11T11:32:18.642Z,72.95
2022-10-11T11:33:39.313Z,72.83
2022-10-11T11:34:47.704Z,72.99
2022-10-11T11:35:54.531Z,72.78
2022-10-11T11:37:01.556Z,73.03
2022-10-11T11:38:14.433Z,72.67
2022-10-11T11:39:25.548Z,73.06
2022-10-11T11:40:35.505Z,73.07
2022-10-11T11:41:44.669Z,73.19
2022-10-11T11:42:50.682Z,73.40
2022-10-11T11:44:03.665Z,73.52
2022-10-11T11:45:16.932Z,73.65
2022-10-11T11:46:22.692Z,73.75
2022-10-11T11:47:31.195Z,74.14
2022-10-11T11:48:33.870Z,73.81
2022-10-11T11:49:39.274Z,74.02
2022-10-11T11:50:47.284Z,73.51
2022-10-11T11:51:52.337Z,73.77
2022-10-11T11:52:58.306Z,73.97
2022-10-11T11:54:18.757Z,73.58
2022-10-11T11:55:28.011Z,73.41
2022-10-11T11:56:43.318Z,73.57
2022-10-11T11:57:57.964Z,73.49
2022-10-11T11:59:07.654Z,72.64
2022-10-11T12:00:15.977Z,73.25
2022-10-11T12:01:31.519Z,73.05
2022-10-11T12:02:50.453Z,73.19
2022-10-11T12:03:55.474Z,73.67
2022-10-11T12:04:59.130Z,73.64
2022-10-11T12:06:24.299Z,73.95
2022-10-11T12:07:30.254Z,73.58
2022-10-11T12:08:35.725Z,73.84
2022-10-11T12:09:45.418Z,73.76
2022-10-11T12:10:55.829Z,73.38
2022-10-11T12:12:00.984Z,73.58
2022-10-11T12:13:09.132Z,73.63
2022-10-11T12:14:27.596Z,73.56
2022-10-11T12:15:32.389Z,73.83
2022-10-11T12:16:35.521Z,73.58
2022-10-11T12:18:02.483Z,73.47
2022-10-11T12:19:05.620Z,73.63
2022-10-11T12:20:17.485Z,73.82
2022-10-11T12:21:26.580Z,73.73
2022-10-11T12:23:00.741Z,73.53
2022-10-11T12:24:11.907Z,73.45
2022-10-11T12:25:51.287Z,73.85
2022-10-11T12:26:58.986Z,73.48
2022-10-11T12:28:48.771Z,73.50
2022-10-11T12:29:53.360Z,73.39
2022-10-11T12:31:04.758Z,73.46
2022-10-11T12:32:50.212Z,73.07
2022-10-11T12:34:17.071Z,73.24
2022-10-11T12:36:05.643Z,72.86
2022-10-11T12:37:50.603Z,72.58
2022-10-11T12:39:27.322Z,72.80
2022-10-11T12:40:42.276Z,72.43
2022-10-11T12:41:54.599Z,72.35
2022-10-11T12:43:29.341Z,72.40
2022-10-11T12:44:33.206Z,72.36
2022-10-11T12:45:41.427Z,72.54
2022-10-11T12:47:14.750Z,72.78
2022-10-11T12:48:52.804Z,72.49
2022-10-11T12:50:19.213Z,72.55
2022-10-11T12:51:37.961Z,72.40
2022-10-11T12:52:52.259Z,72.69
2022-10-11T12:54:28.286Z,72.59
2022-10-11T12:55:49.502Z,72.50
2022-10-11T12:57:06.345Z,72.31
2022-10-11T12:58:30.455Z,72.07
2022-10-11T12:59:32.812Z,71.94
2022-10-11T13:00:45.615Z,71.75
2022-10-11T13:01:52.236Z,71.44
2022-10-11T13:02:54.668Z,71.66
2022-10-11T13:04:05.494Z,71.05
2022-10-11T13:05:15.563Z,70.94
2022-10-11T13:06:21.705Z,71.10
2022-10-11T13:07:23.987Z,70.92
2022-10-11T13:08:32.517Z,70.70
2022-10-11T13:09:39.164Z,70.79
2022-10-11T13:10:44.518Z,71.00
2022-10-11T13:11:51.765Z,71.18
2022-10-11T13:12:55.194Z,71.10
2022-10-11T13:14:01.347Z,71.16
2022-10-11T13:15:09.837Z,71.33
2022-10-11T13:16:15.936Z,71.63
2022-10-11T13:17:22.794Z,71.47
2022-10-11T13:18:26.484Z,71.78
2022-10-11T13:19:30.894Z,71.74
2022-10-11T13:20:42.434Z,71.87
2022-10-11T13:21:54.362Z,71.34
2022-10-11T13:22:57.633Z,71.75
2022-10-11T13:24:03.356Z,71.82
2022-10-11T13:25:06.775Z,72.10
2022-10-11T13:26:09.926Z,72.21
2022-10-11T13:27:19.868Z,72.39
2022-10-11T13:28:23.910Z,72.43
2022-10-11T13:29:32.184Z,72.11
2022-10-11T13:30:38.371Z,72.28
2022-10-11T13:31:44.911Z,71.53
2022-10-11T13:32:48.525Z,71.25
2022-10-11T13:33:54.892Z,71.06
2022-10-11T13:35:01.757Z,70.91
2022-10-11T13:36:09.648Z,70.31
2022-10-11T13:37:18.075Z,70.33
2022-10-11T13:38:23.226Z,70.44
2022-10-11T13:39:31.269Z,69.93
2022-10-11T13:40:35.472Z,70.00
2022-10-11T13:41:37.765Z,69.60
2022-10-11T13:42:41.069Z,69.34
2022-10-11T13:43:44.240Z,69.09
2022-10-11T13:44:48.158Z,69.08
2022-10-11T13:45:50.406Z,69.07
2022-10-11T13:46:55.207Z,68.81
2022-10-11T13:47:57.584Z,68.67
2022-10-11T13:49:02.432Z,68.15
2022-10-11T13:50:18.513Z,67.93
2022-10-11T13:51:30.252Z,68.01
2022-10-11T13:52:32.598Z,67.95
2022-10-11T13:53:36.315Z,67.75
2022-10-11T13:55:09.152Z,67.57
2022-10-11T13:56:12.939Z,68.15
2022-10-11T13:57:15.391Z,67.79
2022-10-11T13:58:27.801Z,68.01
2022-10-11T13:59:31.105Z,68.34
2022-10-11T14:00:37.303Z,68.45
2022-10-11T14:01:44.928Z,68.55
2022-10-11T14:02:51.031Z,69.11
2022-10-11T14:03:57.725Z,69.04
2022-10-11T14:05:01.085Z,69.39
2022-10-11T14:06:04.878Z,69.60
2022-10-11T14:07:22.020Z,69.92
2022-10-11T14:08:30.799Z,70.19
2022-10-11T14:09:36.670Z,70.29
2022-10-11T14:10:39.014Z,70.94
2022-10-11T14:11:42.138Z,70.54
2022-10-11T14:12:44.471Z,70.84
2022-10-11T14:13:49.772Z,70.95
2022-10-11T14:14:52.123Z,71.16
2022-10-11T14:16:03.469Z,71.35
2022-10-11T14:17:11.408Z,71.56
2022-10-11T14:18:35.682Z,71.51
2022-10-11T14:19:38.179Z,72.19
2022-10-11T14:20:41.849Z,72.19
2022-10-11T14:21:54.645Z,72.71
2022-10-11T14:22:56.714Z,72.72
2022-10-11T14:24:01.944Z,73.09
2022-10-11T14:25:04.813Z,73.29
2022-10-11T14:26:11.545Z,73.43
2022-10-11T14:27:28.894Z,73.67
2022-10-11T14:28:31.000Z,74.08
2022-10-11T14:29:38.922Z,74.42
2022-10-11T14:30:43.029Z,74.61
2022-10-11T14:31:45.211Z,74.99
2022-10-11T14:32:50.198Z,75.12
2022-10-11T14:33:54.905Z,75.40
2022-10-11T14:34:58.935Z,75.49
2022-10-11T14:36:02.258Z,75.95
2022-10-11T14:37:04.710Z,76.31
2022-10-11T14:38:07.917Z,76.44
2022-10-11T14:39:14.731Z,76.60
2022-10-11T14:40:20.437Z,76.73
2022-10-11T14:41:22.626Z,76.80
2022-10-11T14:42:25.728Z,76.79
2022-10-11T14:43:28.866Z,77.07
2022-10-11T14:44:31.334Z,76.74
2022-10-11T14:45:34.358Z,76.86
2022-10-11T14:46:38.549Z,77.03
2022-10-11T14:47:43.088Z,76.74
2022-10-11T14:48:57.083Z,76.79
2022-10-11T14:50:01.597Z,76.84
2022-10-11T14:51:06.157Z,76.93
2022-10-11T14:52:12.260Z,76.90
2022-10-11T14:53:14.836Z,77.22
2022-10-11T14:54:22.328Z,77.39
2022-10-11T14:55:24.662Z,77.41
2022-10-11T14:56:27.864Z,77.38
2022-10-11T14:57:29.992Z,77.63
2022-10-11T14:58:33.088Z,77.56
2022-10-11T14:59:37.187Z,77.47
2022-10-11T15:00:40.646Z,77.70
2022-10-11T15:01:43.080Z,77.85
2022-10-11T15:02:46.284Z,78.04
2022-10-11T15:03:48.410Z,78.15
2022-10-11T15:04:51.535Z,77.77
2022-10-11T15:05:55.220Z,78.36
2022-10-11T15:06:59.108Z,78.27
2022-10-11T15:08:05.653Z,78.18
2022-10-11T15:09:08.321Z,78.39
2022-10-11T15:10:30.452Z,78.32
2022-10-11T15:11:33.299Z,78.53
2022-10-11T15:12:36.458Z,78.49
2022-10-11T15:13:38.627Z,78.45
2022-10-11T15:14:41.735Z,78.62
2022-10-11T15:15:43.855Z,78.15
2022-10-11T15:16:46.998Z,78.42
2022-10-11T15:17:51.312Z,78.55
2022-10-11T15:18:54.628Z,78.44
2022-10-11T15:19:58.029Z,78.56
2022-10-11T15:21:01.530Z,78.77
2022-10-11T15:22:06.021Z,78.83
2022-10-11T15:23:09.851Z,79.12
2022-10-11T15:24:13.304Z,79.15
2022-10-11T15:25:15.580Z,79.16
2022-10-11T15:26:20.812Z,79.37
2022-10-11T15:27:25.597Z,79.27
2022-10-11T15:28:30.553Z,79.53
2022-10-11T15:29:32.688Z,79.39
2022-10-11T15:30:41.243Z,79.56
2022-10-11T15:31:44.031Z,79.37
2022-10-11T15:32:47.770Z,79.51
2022-10-11T15:33:51.381Z,79.73
2022-10-11T15:34:54.457Z,79.97
2022-10-11T15:35:57.570Z,80.41
2022-10-11T15:37:01.767Z,80.31
2022-10-11T15:38:04.966Z,80.20
2022-10-11T15:39:24.206Z,80.53
2022-10-11T15:40:29.057Z,80.51
2022-10-11T15:41:31.240Z,80.51
2022-10-11T15:42:34.311Z,80.44
2022-10-11T15:43:37.491Z,80.67
2022-10-11T15:44:41.093Z,80.85
2022-10-11T15:45:44.386Z,80.80
2022-10-11T15:46:47.507Z,81.20
2022-10-11T15:47:49.977Z,81.25
2022-10-11T15:48:53.469Z,81.45
2022-10-11T15:49:57.015Z,81.39
2022-10-11T15:51:00.462Z,81.43
2022-10-11T15:52:04.027Z,81.96
2022-10-11T15:53:09.295Z,81.90
2022-10-11T15:54:11.357Z,82.17
2022-10-11T15:55:14.644Z,82.10
2022-10-11T15:56:19.682Z,82.59
2022-10-11T15:57:21.796Z,82.43
2022-10-11T15:58:26.925Z,82.68
2022-10-11T15:59:29.087Z,83.05
2022-10-11T16:00:32.585Z,83.18
2022-10-11T16:01:34.765Z,83.16
2022-10-11T16:02:37.954Z,83.44
2022-10-11T16:03:40.146Z,83.48
2022-10-11T16:04:44.165Z,83.36
2022-10-11T16:05:48.023Z,83.19
2022-10-11T16:06:51.094Z,83.65